Time;durP1;ratioP1;P1;durP2;ratioP2;P2;SDS_P1;SDS_P2;PMS_P1;PMS_P2;Temp;Humidity;BMP_temperature;BMP_pressure;BME280_temperature;BME280_humidity;BME280_pressure;Samples;Min_cycle;Max_cycle;Signal;HPM_P1;HPM_P2
2023/08/26 00:01:23;;;;;;;6.20;5.60;;;;;;;22.15;77.99;98280.02;226795;1273;22566;-73
2023/08/26 00:06:25;;;;;;;6.50;5.70;;;;;;;22.07;78.17;98263.22;226741;1273;25255;-72
2023/08/26 00:11:27;;;;;;;6.80;5.80;;;;;;;21.98;78.34;98250.26;226795;1273;22636;-72
2023/08/26 00:16:29;;;;;;;7.50;5.80;;;;;;;21.88;78.48;98262.83;226846;1270;22526;-72
2023/08/26 00:21:31;;;;;;;7.60;5.50;;;;;;;21.76;78.81;98261.41;226750;1273;22533;-73
2023/08/26 00:26:34;;;;;;;7.80;5.40;;;;;;;21.67;79.17;98261.96;226727;1270;22543;-73
2023/08/26 00:31:36;;;;;;;6.10;5.20;;;;;;;21.59;79.48;98259.77;226674;1273;23093;-72
2023/08/26 00:36:38;;;;;;;7.60;5.40;;;;;;;21.53;79.70;98269.52;226784;1273;22630;-73
2023/08/26 00:41:39;;;;;;;6.80;5.50;;;;;;;21.45;79.96;98288.18;226748;1273;24370;-72
2023/08/26 00:46:41;;;;;;;6.00;5.40;;;;;;;21.38;80.20;98283.34;226808;1273;23655;-72
2023/08/26 00:51:45;;;;;;;6.60;5.20;;;;;;;21.30;80.50;98278.47;226718;1250;22529;-73
2023/08/26 00:56:47;;;;;;;9.80;6.00;;;;;;;21.23;80.78;98284.32;226949;1273;25429;-74
2023/08/26 01:01:50;;;;;;;7.80;5.50;;;;;;;21.15;80.91;98288.11;226775;1272;24256;-73
2023/08/26 01:06:52;;;;;;;7.20;5.40;;;;;;;21.08;81.19;98290.24;226669;1273;22539;-73
2023/08/26 01:12:00;;;;;;;6.50;5.60;;;;;;;21.02;81.48;98287.67;226653;1273;22579;-73
2023/08/26 01:17:06;;;;;;;8.80;5.40;;;;;;;20.97;81.69;98285.52;226790;1273;22547;-73
2023/08/26 01:22:09;;;;;;;8.60;5.60;;;;;;;20.92;81.98;98286.27;226789;1273;22531;-73
2023/08/26 01:27:11;;;;;;;7.30;6.20;;;;;;;20.89;82.24;98284.65;226858;1272;22531;-73
2023/08/26 01:32:40;;;;;;;7.70;6.40;;;;;;;20.86;82.48;98289.74;226774;1272;22519;-73
2023/08/26 01:37:43;;;;;;;10.40;6.90;;;;;;;20.83;82.53;98292.09;226757;1272;117977;-73
2023/08/26 01:42:46;;;;;;;8.60;6.20;;;;;;;20.79;82.58;98291.45;226858;1273;25374;-73
2023/08/26 01:47:48;;;;;;;10.00;6.80;;;;;;;20.75;82.96;98287.48;226817;1272;22540;-73
2023/08/26 01:52:50;;;;;;;9.90;6.50;;;;;;;20.70;83.05;98286.55;226815;1270;23274;-73
2023/08/26 01:57:52;;;;;;;9.30;6.70;;;;;;;20.64;83.22;98285.24;226803;1271;22890;-73
2023/08/26 02:02:55;;;;;;;8.50;7.00;;;;;;;20.59;83.44;98291.89;226845;1273;22567;-73
2023/08/26 02:07:57;;;;;;;10.10;6.80;;;;;;;20.53;83.39;98287.52;226762;1273;22534;-73
2023/08/26 02:12:59;;;;;;;7.50;6.80;;;;;;;20.47;83.53;98290.73;226751;1273;22542;-72
2023/08/26 02:18:01;;;;;;;8.00;6.40;;;;;;;20.41;83.70;98293.29;226773;1274;22520;-73
2023/08/26 02:23:03;;;;;;;8.00;6.90;;;;;;;20.37;83.76;98291.21;226724;1273;22530;-73
2023/08/26 02:28:05;;;;;;;8.40;6.70;;;;;;;20.33;83.93;98293.87;226745;1273;22989;-73
2023/08/26 02:33:08;;;;;;;10.40;6.60;;;;;;;20.29;84.03;98294.02;226772;1273;23036;-73
2023/08/26 02:38:10;;;;;;;9.50;7.60;;;;;;;20.23;84.10;98296.94;226735;1273;22549;-72
2023/08/26 02:43:12;;;;;;;10.60;7.80;;;;;;;20.18;84.29;98299.92;226741;1271;22534;-73
2023/08/26 02:48:15;;;;;;;9.50;8.10;;;;;;;20.15;84.40;98296.27;226688;1270;22532;-72
2023/08/26 02:53:18;;;;;;;9.00;7.70;;;;;;;20.10;84.51;98294.46;226746;1273;24227;-73
2023/08/26 02:58:21;;;;;;;11.30;7.80;;;;;;;20.06;84.64;98303.66;226759;1263;24860;-73
2023/08/26 03:03:23;;;;;;;8.20;7.20;;;;;;;20.01;84.83;98310.20;226984;1273;22556;-73
2023/08/26 03:08:25;;;;;;;10.80;7.80;;;;;;;19.95;84.74;98319.23;226789;1273;22588;-73
2023/08/26 03:13:27;;;;;;;9.30;8.20;;;;;;;19.89;84.95;98326.75;226811;1273;22617;-72
2023/08/26 03:18:29;;;;;;;15.70;8.10;;;;;;;19.83;84.91;98327.31;226973;1273;22527;-73
2023/08/26 03:23:33;;;;;;;12.70;8.40;;;;;;;19.75;85.15;98334.65;226880;1270;22561;-73
2023/08/26 03:28:35;;;;;;;9.30;8.40;;;;;;;19.69;85.15;98339.77;226930;1272;22641;-73
2023/08/26 03:33:40;;;;;;;14.90;9.00;;;;;;;19.64;85.30;98333.94;226783;1269;22546;-73
2023/08/26 03:38:42;;;;;;;12.60;9.20;;;;;;;19.60;85.46;98330.63;226732;1272;22557;-73
2023/08/26 03:43:43;;;;;;;9.60;8.50;;;;;;;19.55;85.52;98331.04;226714;1270;22532;-73
2023/08/26 03:48:45;;;;;;;10.70;8.90;;;;;;;19.52;85.79;98334.27;226715;1267;25239;-73
2023/08/26 03:53:48;;;;;;;10.50;8.60;;;;;;;19.49;86.00;98337.56;226844;1269;22628;-73
2023/08/26 03:58:56;;;;;;;10.20;8.20;;;;;;;19.47;86.22;98342.19;226783;1270;25894;-72
2023/08/26 04:03:58;;;;;;;10.10;8.10;;;;;;;19.48;86.31;98351.41;226895;1251;25473;-72
2023/08/26 04:09:02;;;;;;;12.90;11.60;;;;;;;19.49;86.32;98355.39;226792;1270;22535;-72
2023/08/26 04:14:04;;;;;;;16.70;14.90;;;;;;;19.49;86.28;98356.79;226934;1272;22569;-73
2023/08/26 04:19:06;;;;;;;26.40;23.70;;;;;;;19.52;86.32;98359.73;226779;1270;22534;-72
2023/08/26 04:24:08;;;;;;;56.50;49.50;;;;;;;19.54;86.41;98360.02;226977;1272;22656;-73
2023/08/26 04:29:10;;;;;;;79.00;71.10;;;;;;;19.58;86.57;98355.34;226795;1272;22544;-72
2023/08/26 04:34:11;;;;;;;88.00;78.90;;;;;;;19.66;86.62;98359.68;226720;1270;22618;-72
2023/08/26 04:39:13;;;;;;;95.20;85.40;;;;;;;19.75;86.71;98356.69;226698;1251;22637;-72
2023/08/26 04:44:17;;;;;;;106.00;94.70;;;;;;;19.87;86.73;98358.54;226692;1269;23005;-74
2023/08/26 04:49:19;;;;;;;98.60;88.20;;;;;;;20.00;86.70;98353.70;226715;1273;22533;-73
2023/08/26 04:54:21;;;;;;;47.10;42.00;;;;;;;20.13;86.75;98353.83;226842;1272;22528;-73
2023/08/26 04:59:23;;;;;;;23.60;19.20;;;;;;;20.26;86.64;98351.20;226712;1269;22555;-73
2023/08/26 05:04:25;;;;;;;19.50;15.40;;;;;;;20.40;86.71;98344.31;226844;1270;22530;-74
2023/08/26 05:09:28;;;;;;;13.80;12.20;;;;;;;20.55;86.63;98346.26;226745;1273;22549;-73
2023/08/26 05:14:30;;;;;;;13.30;12.00;;;;;;;20.69;86.48;98340.18;226737;1273;22534;-73
2023/08/26 05:19:31;;;;;;;12.10;9.10;;;;;;;20.85;86.40;98346.20;226857;1272;24923;-72
2023/08/26 05:24:34;;;;;;;7.60;6.90;;;;;;;21.01;85.88;98343.59;226947;1251;25377;-73
2023/08/26 05:29:37;;;;;;;10.20;6.90;;;;;;;21.19;85.47;98342.45;226833;1263;22530;-73
2023/08/26 05:34:39;;;;;;;9.30;6.50;;;;;;;21.38;85.12;98338.02;226803;1262;22544;-73
2023/08/26 05:39:41;;;;;;;8.20;6.50;;;;;;;21.55;84.69;98332.16;226732;1270;22647;-73
2023/08/26 05:44:43;;;;;;;8.90;5.80;;;;;;;21.73;84.50;98336.02;226685;1270;22557;-72
2023/08/26 05:49:45;;;;;;;7.50;5.70;;;;;;;21.92;83.92;98336.09;226745;1267;22530;-72
2023/08/26 05:54:47;;;;;;;6.20;5.70;;;;;;;22.11;83.46;98336.99;226722;1272;22608;-73
2023/08/26 05:59:49;;;;;;;9.00;6.50;;;;;;;22.29;83.11;98343.23;226704;1251;22542;-73
2023/08/26 06:04:51;;;;;;;8.40;5.80;;;;;;;22.54;82.77;98354.71;226684;1272;22543;-72
2023/08/26 06:09:54;;;;;;;7.90;6.00;;;;;;;22.89;82.29;98362.33;226899;1272;23035;-73
2023/08/26 06:14:56;;;;;;;6.50;5.80;;;;;;;23.14;81.66;98357.27;226845;1266;22549;-73
2023/08/26 06:19:57;;;;;;;6.80;5.90;;;;;;;23.26;81.12;98358.33;226788;1270;22534;-72
2023/08/26 06:25:00;;;;;;;6.20;5.40;;;;;;;23.45;80.86;98365.73;226771;1272;23265;-72
2023/08/26 06:30:03;;;;;;;7.10;6.10;;;;;;;23.60;80.50;98370.17;226802;1270;25411;-72
2023/08/26 06:35:06;;;;;;;7.00;6.20;;;;;;;23.67;79.96;98382.31;226709;1270;22585;-73
2023/08/26 06:40:09;;;;;;;5.80;5.20;;;;;;;23.73;79.58;98379.89;226739;1270;22530;-73
2023/08/26 06:45:12;;;;;;;5.40;4.90;;;;;;;23.82;79.42;98381.86;226733;1270;24294;-72
2023/08/26 06:50:14;;;;;;;7.60;5.20;;;;;;;23.99;79.12;98383.27;226625;1273;22629;-73
2023/08/26 06:55:17;;;;;;;5.30;4.80;;;;;;;24.19;78.82;98385.77;226747;1270;22567;-73
2023/08/26 07:00:19;;;;;;;6.10;5.40;;;;;;;24.34;77.95;98393.84;226588;1254;24201;-72
2023/08/26 07:05:22;;;;;;;5.70;4.50;;;;;;;24.43;77.04;98405.63;226466;1253;22523;-72
2023/08/26 07:10:24;;;;;;;6.00;4.80;;;;;;;24.47;75.83;98407.91;226681;1266;22528;-72
2023/08/26 07:15:25;;;;;;;5.10;4.70;;;;;;;24.54;75.61;98412.95;226588;1266;22559;-72
2023/08/26 07:20:27;;;;;;;6.30;5.30;;;;;;;24.74;75.72;98408.93;226556;1269;22573;-72
2023/08/26 07:25:29;;;;;;;5.10;4.60;;;;;;;24.91;75.78;98408.99;226667;1269;22577;-72
2023/08/26 07:30:31;;;;;;;6.50;4.80;;;;;;;25.03;74.92;98409.19;226563;1270;22984;-73
2023/08/26 07:35:33;;;;;;;5.40;4.90;;;;;;;25.18;74.50;98407.73;226502;1271;25242;-73
2023/08/26 07:40:35;;;;;;;5.90;5.40;;;;;;;25.49;73.85;98408.41;226650;1250;22562;-73
2023/08/26 07:45:37;;;;;;;5.70;4.70;;;;;;;25.76;73.20;98406.60;226614;1266;22553;-73
2023/08/26 07:50:39;;;;;;;5.30;4.70;;;;;;;26.08;72.49;98403.94;226748;1266;22625;-73
2023/08/26 07:55:41;;;;;;;4.80;4.10;;;;;;;26.37;71.46;98402.11;226719;1270;22523;-73
2023/08/26 08:00:45;;;;;;;6.10;4.10;;;;;;;26.58;70.72;98395.60;226627;1266;22577;-72
2023/08/26 08:05:47;;;;;;;5.10;4.60;;;;;;;26.71;69.85;98398.06;226465;1270;22534;-72
2023/08/26 08:10:50;;;;;;;4.80;4.40;;;;;;;26.82;69.70;98393.65;226552;1254;22534;-70
2023/08/26 08:15:52;;;;;;;5.80;4.60;;;;;;;27.09;69.97;98390.70;226403;1254;24231;-71
2023/08/26 08:20:54;;;;;;;4.50;4.10;;;;;;;27.45;69.10;98383.14;226456;1267;22707;-70
2023/08/26 08:25:56;;;;;;;4.10;3.70;;;;;;;27.63;66.78;98375.98;226429;1270;26130;-70
2023/08/26 08:30:58;;;;;;;4.10;3.70;;;;;;;27.83;66.18;98374.11;226525;1253;22533;-70
2023/08/26 08:36:01;;;;;;;4.00;3.70;;;;;;;28.01;64.87;98380.94;226582;1266;22549;-70
2023/08/26 08:41:03;;;;;;;3.80;3.50;;;;;;;28.20;64.20;98382.82;226554;1263;26143;-69
2023/08/26 08:46:06;;;;;;;3.90;3.50;;;;;;;28.53;63.89;98383.87;226587;1259;22551;-70
2023/08/26 08:51:10;;;;;;;3.50;3.20;;;;;;;28.73;62.49;98375.95;226437;1262;22561;-70
2023/08/26 08:56:18;;;;;;;3.50;3.20;;;;;;;28.99;62.08;98371.92;226525;1250;22545;-70
2023/08/26 09:01:25;;;;;;;3.20;3.00;;;;;;;29.22;61.29;98377.32;226619;1266;22543;-70
2023/08/26 09:06:27;;;;;;;3.80;3.40;;;;;;;29.34;60.99;98375.31;226663;1257;22527;-71
2023/08/26 09:11:29;;;;;;;3.40;3.10;;;;;;;29.34;60.07;98372.21;226615;1250;22538;-70
2023/08/26 09:16:35;;;;;;;4.10;3.60;;;;;;;29.33;59.81;98378.26;226597;1270;22579;-70
2023/08/26 09:21:44;;;;;;;3.90;3.50;;;;;;;29.31;59.38;98389.08;226634;1266;22514;-71
2023/08/26 09:26:59;;;;;;;4.60;3.90;;;;;;;29.12;59.38;98394.60;226610;1250;22546;-70
2023/08/26 09:32:01;;;;;;;5.20;4.00;;;;;;;28.94;59.99;98401.90;226461;1266;22534;-70
2023/08/26 09:37:06;;;;;;;5.90;4.00;;;;;;;28.77;60.47;98412.83;226480;1254;22535;-69
2023/08/26 09:42:07;;;;;;;4.60;3.90;;;;;;;28.73;60.70;98402.00;226609;1260;22563;-70
2023/08/26 09:47:11;;;;;;;3.60;3.40;;;;;;;28.84;60.87;98403.45;226510;1270;23038;-70
2023/08/26 09:52:15;;;;;;;3.60;3.40;;;;;;;28.94;60.63;98398.48;226517;1266;23975;-70
2023/08/26 09:57:17;;;;;;;3.70;3.40;;;;;;;28.94;59.30;98411.54;226400;1270;22541;-70
2023/08/26 10:02:22;;;;;;;3.50;2.90;;;;;;;28.85;58.73;98420.67;226374;1250;25339;-70
2023/08/26 10:07:25;;;;;;;3.30;3.10;;;;;;;28.80;58.86;98430.60;226486;1260;22544;-70
2023/08/26 10:12:55;;;;;;;3.70;3.40;;;;;;;28.74;59.07;98426.79;226532;1262;22553;-71
2023/08/26 10:18:05;;;;;;;3.90;3.50;;;;;;;28.69;59.54;98420.65;226553;1273;22668;-70
2023/08/26 10:23:10;;;;;;;4.00;3.30;;;;;;;28.72;59.67;98422.05;226496;1267;22520;-70
2023/08/26 10:28:12;;;;;;;3.80;3.40;;;;;;;28.80;60.01;98427.72;226451;1269;22545;-74
2023/08/26 10:33:15;;;;;;;4.60;3.60;;;;;;;28.88;60.28;98420.10;226560;1257;22559;-78
2023/08/26 10:38:17;;;;;;;4.70;4.20;;;;;;;28.85;60.39;98408.00;226562;1260;22533;-72
2023/08/26 10:43:19;;;;;;;4.90;4.50;;;;;;;28.84;60.57;98385.17;226496;1270;22544;-70
2023/08/26 10:48:24;;;;;;;5.80;5.10;;;;;;;28.83;60.71;98360.27;226410;1251;22532;-71
2023/08/26 10:53:26;;;;;;;5.50;5.10;;;;;;;28.77;60.96;98345.31;226425;1257;22569;-71
2023/08/26 10:58:43;;;;;;;7.70;5.80;;;;;;;28.60;61.51;98362.06;226458;1250;22545;-72
2023/08/26 11:03:45;;;;;;;5.80;5.40;;;;;;;28.19;62.44;98406.69;226371;1273;24203;-71
2023/08/26 11:08:57;;;;;;;6.30;5.80;;;;;;;27.85;63.66;98399.36;226297;1271;22579;-72
2023/08/26 11:13:59;;;;;;;6.00;5.50;;;;;;;27.60;64.59;98400.83;226765;1269;22547;-72
2023/08/26 11:19:02;;;;;;;8.30;6.10;;;;;;;27.27;65.87;98406.79;226733;1269;22554;-72
2023/08/26 11:24:04;;;;;;;6.70;6.20;;;;;;;26.90;66.55;98431.84;226861;1272;22541;-71
2023/08/26 11:29:06;;;;;;;7.50;6.90;;;;;;;26.58;67.66;98426.61;226791;1270;22539;-72
2023/08/26 11:34:09;;;;;;;7.00;6.10;;;;;;;26.39;68.88;98425.94;226833;1269;22537;-72
2023/08/26 11:39:17;;;;;;;6.60;6.00;;;;;;;26.11;69.16;98426.59;226656;1263;23083;-72
2023/08/26 11:44:19;;;;;;;5.40;4.90;;;;;;;25.81;69.43;98416.70;226613;1266;25297;-71
2023/08/26 11:49:22;;;;;;;7.10;5.30;;;;;;;25.57;70.12;98435.84;226684;1269;22537;-72
2023/08/26 11:54:25;;;;;;;5.40;5.00;;;;;;;25.36;70.78;98438.59;226826;1270;25318;-72
2023/08/26 11:59:37;;;;;;;6.60;5.60;;;;;;;25.21;71.23;98446.68;226718;1266;22539;-73
2023/08/26 12:04:39;;;;;;;6.70;5.80;;;;;;;25.09;71.37;98433.43;226747;1266;22581;-72
2023/08/26 12:09:41;;;;;;;9.90;6.40;;;;;;;24.99;71.75;98427.34;226724;1266;25243;-72
2023/08/26 12:14:43;;;;;;;6.90;6.20;;;;;;;24.94;72.00;98418.80;226780;1272;22595;-72
2023/08/26 12:19:45;;;;;;;7.90;6.20;;;;;;;24.92;72.52;98422.88;226768;1269;22596;-72
2023/08/26 12:24:46;;;;;;;7.70;7.00;;;;;;;24.90;72.52;98425.11;226738;1272;22541;-72
2023/08/26 12:29:48;;;;;;;7.20;6.20;;;;;;;24.90;72.80;98434.52;226876;1272;25483;-72
2023/08/26 12:34:50;;;;;;;6.70;6.10;;;;;;;24.93;73.12;98440.16;226763;1266;22569;-75
2023/08/26 12:39:52;;;;;;;7.50;6.50;;;;;;;24.93;73.06;98444.43;226806;1269;22588;-72
2023/08/26 12:44:54;;;;;;;7.70;7.00;;;;;;;24.98;73.38;98445.48;226786;1250;22537;-72
2023/08/26 12:49:57;;;;;;;7.70;6.90;;;;;;;25.09;73.40;98449.39;226786;1250;22541;-73
2023/08/26 12:54:59;;;;;;;9.20;8.30;;;;;;;25.28;73.72;98450.77;226743;1269;22547;-72
2023/08/26 13:00:01;;;;;;;8.50;7.70;;;;;;;25.59;73.71;98444.96;226807;1272;22666;-72
2023/08/26 13:05:10;;;;;;;8.80;7.90;;;;;;;25.85;73.12;98445.55;226745;1255;22534;-73
2023/08/26 13:10:11;;;;;;;8.20;7.40;;;;;;;26.12;72.89;98445.74;226744;1270;22581;-73
2023/08/26 13:15:13;;;;;;;7.80;7.10;;;;;;;26.26;72.14;98438.33;226770;1270;22597;-73
2023/08/26 13:20:15;;;;;;;7.60;6.90;;;;;;;26.18;71.62;98426.52;226714;1270;22569;-74
2023/08/26 13:25:17;;;;;;;8.20;7.10;;;;;;;26.16;71.90;98411.11;226746;1269;22560;-73
2023/08/26 13:30:19;;;;;;;7.80;7.10;;;;;;;26.42;72.20;98409.36;226713;1253;22540;-72
2023/08/26 13:35:21;;;;;;;7.90;7.20;;;;;;;26.67;71.56;98405.45;226548;1266;144295;-71
2023/08/26 13:40:23;;;;;;;8.30;7.60;;;;;;;26.89;71.12;98408.73;226724;1272;24206;-73
2023/08/26 13:45:25;;;;;;;7.80;7.00;;;;;;;27.07;70.83;98405.06;226801;1272;22642;-72
2023/08/26 13:50:28;;;;;;;7.30;6.60;;;;;;;27.12;70.17;98406.04;226600;1254;22545;-72
2023/08/26 13:55:30;;;;;;;7.50;6.70;;;;;;;27.11;69.71;98407.21;226690;1270;22731;-72
2023/08/26 14:00:32;;;;;;;7.80;7.10;;;;;;;27.08;69.90;98413.02;226651;1272;23014;-72
2023/08/26 14:05:34;;;;;;;9.90;7.30;;;;;;;27.15;70.14;98409.89;226740;1269;22572;-73
2023/08/26 14:10:36;;;;;;;8.50;7.60;;;;;;;27.20;70.25;98401.14;226648;1272;22547;-73
2023/08/26 14:15:41;;;;;;;9.40;7.40;;;;;;;27.30;70.07;98400.33;226701;1266;25275;-72
2023/08/26 14:20:44;;;;;;;8.00;7.20;;;;;;;27.42;70.25;98409.59;226592;1269;22555;-71
2023/08/26 14:25:46;;;;;;;7.70;6.90;;;;;;;27.57;69.72;98403.95;226813;1270;22588;-72
2023/08/26 14:30:51;;;;;;;7.30;6.70;;;;;;;27.67;69.56;98397.52;226629;1272;22916;-72
2023/08/26 14:35:54;;;;;;;7.60;6.90;;;;;;;27.72;69.07;98392.98;226684;1270;25390;-72
2023/08/26 14:40:55;;;;;;;11.70;7.40;;;;;;;27.74;68.97;98370.52;226621;1271;24203;-72
2023/08/26 14:45:57;;;;;;;7.50;6.80;;;;;;;27.92;69.04;98350.55;226529;1271;22544;-72
2023/08/26 14:50:59;;;;;;;7.50;6.70;;;;;;;28.26;68.94;98359.93;226609;1272;22563;-72
2023/08/26 14:56:04;;;;;;;6.90;6.30;;;;;;;28.44;68.33;98351.34;226651;1272;22560;-72
2023/08/26 15:01:06;;;;;;;7.10;6.40;;;;;;;28.39;68.15;98333.79;226741;1271;22555;-72
2023/08/26 15:06:08;;;;;;;6.90;6.30;;;;;;;28.41;68.09;98325.27;226712;1266;22539;-72
2023/08/26 15:11:10;;;;;;;6.60;5.90;;;;;;;28.36;67.85;98322.48;226676;1272;25175;-72
2023/08/26 15:16:13;;;;;;;7.40;6.60;;;;;;;28.15;67.52;98320.95;226697;1271;22526;-72
2023/08/26 15:21:17;;;;;;;6.80;6.20;;;;;;;28.03;68.25;98326.81;226792;1272;22537;-72
2023/08/26 15:26:19;;;;;;;8.20;6.70;;;;;;;27.92;68.10;98334.60;226803;1272;22537;-72
2023/08/26 15:31:21;;;;;;;8.00;6.90;;;;;;;27.71;67.83;98338.86;226796;1272;22544;-73
2023/08/26 15:36:26;;;;;;;6.80;6.10;;;;;;;27.54;68.18;98337.23;226773;1266;22538;-73
2023/08/26 15:41:29;;;;;;;7.20;6.50;;;;;;;27.53;68.60;98337.52;226545;1270;25212;-73
2023/08/26 15:46:31;;;;;;;7.10;6.40;;;;;;;27.63;68.25;98334.52;226676;1269;23302;-72
2023/08/26 15:51:34;;;;;;;6.90;6.20;;;;;;;27.61;68.13;98337.88;226725;1272;22551;-72
2023/08/26 15:56:37;;;;;;;7.10;6.50;;;;;;;27.60;67.83;98341.48;226696;1263;24427;-72
2023/08/26 16:01:39;;;;;;;8.40;6.70;;;;;;;27.56;67.92;98338.54;226712;1272;22531;-72
2023/08/26 16:06:41;;;;;;;6.40;5.90;;;;;;;27.53;67.85;98340.61;226694;1269;22542;-72
2023/08/26 16:11:43;;;;;;;6.80;6.20;;;;;;;27.43;67.64;98338.41;226682;1251;22545;-72
2023/08/26 16:16:44;;;;;;;6.70;6.10;;;;;;;27.30;67.45;98334.28;226687;1269;25382;-73
2023/08/26 16:21:46;;;;;;;6.80;6.20;;;;;;;27.18;67.86;98328.21;226592;1272;22571;-72
2023/08/26 16:26:48;;;;;;;6.80;6.00;;;;;;;27.16;68.24;98332.39;226692;1269;24199;-72
2023/08/26 16:31:50;;;;;;;7.30;6.40;;;;;;;27.15;68.30;98327.31;226644;1269;22546;-72
2023/08/26 16:36:52;;;;;;;8.00;6.10;;;;;;;27.11;68.28;98337.23;226716;1272;23547;-73
2023/08/26 16:41:54;;;;;;;8.10;7.30;;;;;;;27.01;68.46;98334.63;226734;1272;22636;-72
2023/08/26 16:46:56;;;;;;;9.00;6.50;;;;;;;26.87;68.52;98331.18;226666;1272;22559;-72
2023/08/26 16:52:01;;;;;;;8.00;6.30;;;;;;;26.73;68.76;98333.05;226608;1272;23332;-73
2023/08/26 16:57:04;;;;;;;8.00;6.00;;;;;;;26.56;69.11;98333.79;226697;1269;22598;-72
2023/08/26 17:02:06;;;;;;;6.60;5.80;;;;;;;26.29;68.99;98333.73;226689;1272;24284;-72
2023/08/26 17:07:08;;;;;;;6.70;6.10;;;;;;;25.99;69.46;98335.48;226688;1269;22526;-72
2023/08/26 17:12:09;;;;;;;6.60;6.00;;;;;;;25.79;69.75;98341.27;226673;1266;22581;-72
2023/08/26 17:17:11;;;;;;;6.90;6.20;;;;;;;25.61;70.20;98340.42;226693;1272;22953;-72
2023/08/26 17:22:13;;;;;;;9.00;6.40;;;;;;;25.42;70.48;98340.08;226686;1267;22623;-72
2023/08/26 17:27:15;;;;;;;7.60;6.20;;;;;;;25.19;71.02;98341.20;226629;1270;22541;-72
2023/08/26 17:32:17;;;;;;;7.80;7.00;;;;;;;24.97;71.52;98345.09;226653;1270;22577;-72
2023/08/26 17:37:20;;;;;;;8.40;7.60;;;;;;;24.75;71.82;98348.77;226685;1272;22533;-72
2023/08/26 17:42:21;;;;;;;8.80;8.00;;;;;;;24.52;72.43;98354.36;226665;1269;23322;-72
2023/08/26 17:47:23;;;;;;;9.30;8.50;;;;;;;24.33;72.91;98352.59;226672;1270;22538;-72
2023/08/26 17:52:25;;;;;;;10.70;9.60;;;;;;;24.15;73.47;98351.19;226747;1272;22603;-72
2023/08/26 17:57:27;;;;;;;10.40;9.30;;;;;;;23.97;73.99;98360.50;226618;1269;22713;-72
2023/08/26 18:02:29;;;;;;;11.20;10.10;;;;;;;23.78;74.24;98360.73;226546;1272;22534;-72
2023/08/26 18:07:31;;;;;;;12.10;10.90;;;;;;;23.58;74.65;98362.58;226623;1269;22534;-72
2023/08/26 18:12:33;;;;;;;12.70;10.20;;;;;;;23.39;75.15;98365.77;226504;1269;22732;-72
2023/08/26 18:17:35;;;;;;;10.30;9.30;;;;;;;23.22;75.45;98368.97;226512;1269;22537;-71
2023/08/26 18:22:38;;;;;;;11.40;9.40;;;;;;;23.04;75.87;98362.52;226586;1269;22560;-72
2023/08/26 18:27:41;;;;;;;9.90;9.00;;;;;;;22.88;76.42;98359.10;226626;1272;22546;-71
2023/08/26 18:32:43;;;;;;;12.00;10.70;;;;;;;22.73;76.87;98363.73;226697;1272;22570;-71
2023/08/26 18:37:45;;;;;;;10.90;9.70;;;;;;;22.58;77.28;98375.54;226759;1272;22534;-72
2023/08/26 18:42:47;;;;;;;9.60;8.70;;;;;;;22.44;77.67;98378.55;226770;1272;22616;-72
2023/08/26 18:47:49;;;;;;;10.10;9.10;;;;;;;22.31;78.03;98381.17;226677;1263;22565;-72
2023/08/26 18:52:51;;;;;;;11.20;10.10;;;;;;;22.20;78.37;98384.23;226677;1272;22922;-71
2023/08/26 18:57:53;;;;;;;11.20;10.10;;;;;;;22.10;78.71;98389.95;226703;1269;22538;-71
2023/08/26 19:02:55;;;;;;;11.90;10.70;;;;;;;22.01;79.00;98401.89;226622;1272;22572;-72
2023/08/26 19:07:58;;;;;;;12.70;11.40;;;;;;;21.92;79.30;98402.54;226648;1269;22530;-71
2023/08/26 19:13:03;;;;;;;14.50;13.00;;;;;;;21.84;79.58;98398.66;226691;1269;22600;-72
2023/08/26 19:18:05;;;;;;;14.40;12.80;;;;;;;21.74;79.84;98396.80;226654;1272;24986;-72
2023/08/26 19:23:07;;;;;;;13.40;12.00;;;;;;;21.63;80.05;98395.83;226643;1272;24197;-72
2023/08/26 19:28:09;;;;;;;13.80;12.50;;;;;;;21.55;80.54;98390.27;226647;1271;22541;-72
2023/08/26 19:33:12;;;;;;;14.90;13.00;;;;;;;21.51;80.94;98370.88;226665;1272;22538;-72
2023/08/26 19:38:14;;;;;;;13.60;12.20;;;;;;;21.49;81.29;98361.04;226785;1272;24473;-72
2023/08/26 19:43:16;;;;;;;14.40;13.00;;;;;;;21.46;81.57;98358.23;226800;1272;22478;-72
2023/08/26 19:48:18;;;;;;;14.10;12.70;;;;;;;21.41;81.83;98340.05;226621;1255;22533;-72
2023/08/26 19:53:19;;;;;;;12.80;11.50;;;;;;;21.36;81.98;98313.77;226817;1272;23609;-72
2023/08/26 19:58:21;;;;;;;11.60;10.40;;;;;;;21.32;82.34;98301.90;226642;1272;22549;-72
2023/08/26 20:03:23;;;;;;;12.90;11.70;;;;;;;21.29;82.53;98308.66;226586;1273;24287;-72
2023/08/26 20:08:25;;;;;;;13.00;11.40;;;;;;;21.26;82.84;98322.96;226579;1263;22530;-72
2023/08/26 20:13:27;;;;;;;13.00;11.60;;;;;;;21.21;82.79;98306.45;226690;1274;22553;-72
2023/08/26 20:18:29;;;;;;;15.40;12.40;;;;;;;21.13;83.00;98300.94;226605;1266;22550;-72
2023/08/26 20:23:31;;;;;;;16.00;12.40;;;;;;;21.04;83.10;98296.96;226668;1272;22534;-72
2023/08/26 20:28:33;;;;;;;15.90;13.00;;;;;;;20.95;83.31;98302.21;226671;1267;22538;-72
2023/08/26 20:33:37;;;;;;;14.90;13.30;;;;;;;20.87;83.48;98317.14;226575;1273;22541;-72
2023/08/26 20:38:39;;;;;;;15.00;13.50;;;;;;;20.80;83.69;98303.91;226662;1272;25358;-72
2023/08/26 20:43:40;;;;;;;14.70;13.00;;;;;;;20.74;83.92;98291.23;226675;1272;22537;-72
2023/08/26 20:48:42;;;;;;;14.10;12.70;;;;;;;20.70;84.25;98294.48;226703;1269;22565;-72
2023/08/26 20:53:44;;;;;;;14.10;12.70;;;;;;;20.63;84.18;98286.31;226624;1272;22534;-72
2023/08/26 20:58:46;;;;;;;15.40;13.80;;;;;;;20.55;84.33;98282.11;226691;1263;23340;-72
2023/08/26 21:03:48;;;;;;;13.80;12.50;;;;;;;20.49;84.50;98261.64;226630;1272;24237;-72
2023/08/26 21:08:51;;;;;;;15.60;13.80;;;;;;;20.44;84.70;98247.14;226526;1257;22567;-72
2023/08/26 21:13:53;;;;;;;15.70;14.00;;;;;;;20.41;84.93;98232.10;226798;1266;22575;-72
2023/08/26 21:18:55;;;;;;;15.70;14.00;;;;;;;20.38;85.05;98224.14;226608;1273;22537;-72
2023/08/26 21:23:57;;;;;;;16.70;15.00;;;;;;;20.36;85.55;98213.45;226676;1270;22555;-72
2023/08/26 21:28:59;;;;;;;16.40;14.70;;;;;;;20.37;85.43;98198.70;226755;1272;22537;-72
2023/08/26 21:34:01;;;;;;;15.10;13.50;;;;;;;20.28;85.34;98204.46;226819;1267;22546;-72
2023/08/26 21:39:03;;;;;;;15.90;14.30;;;;;;;20.25;85.82;98212.27;226591;1273;22606;-72
2023/08/26 21:44:05;;;;;;;14.30;12.80;;;;;;;20.22;85.95;98209.85;226561;1273;22544;-73
2023/08/26 21:49:07;;;;;;;14.70;13.20;;;;;;;20.22;86.37;98220.58;226628;1272;22541;-72
2023/08/26 21:54:09;;;;;;;14.10;12.60;;;;;;;20.27;86.61;98193.23;226718;1267;22527;-72
2023/08/26 21:59:11;;;;;;;13.60;12.20;;;;;;;20.31;86.62;98189.39;226747;1264;22534;-72
2023/08/26 22:04:13;;;;;;;14.80;12.60;;;;;;;20.35;86.63;98163.41;226734;1274;22561;-72
2023/08/26 22:09:15;;;;;;;13.30;12.00;;;;;;;20.41;86.84;98162.59;226656;1273;22561;-72
2023/08/26 22:14:17;;;;;;;14.50;12.70;;;;;;;20.46;86.92;98179.02;226705;1272;22540;-72
2023/08/26 22:19:19;;;;;;;17.90;14.20;;;;;;;20.53;87.28;98158.89;226579;1273;22525;-71
2023/08/26 22:24:21;;;;;;;14.10;12.40;;;;;;;20.52;87.21;98124.48;226761;1267;22557;-71
2023/08/26 22:29:23;;;;;;;13.30;10.60;;;;;;;20.45;86.90;98089.71;226710;1272;22545;-72
2023/08/26 22:34:24;;;;;;;13.70;11.30;;;;;;;20.34;86.69;98074.34;226788;1270;24905;-72
2023/08/26 22:39:26;;;;;;;13.40;11.90;;;;;;;20.25;86.74;98137.09;226714;1273;22573;-72
2023/08/26 22:44:28;;;;;;;16.50;11.50;;;;;;;20.17;87.06;98298.25;226784;1272;22556;-72
2023/08/26 22:49:30;;;;;;;14.80;11.80;;;;;;;19.98;91.80;98445.23;226842;1272;23571;-71
2023/08/26 22:54:32;;;;;;;13.70;9.00;;;;;;;19.68;95.67;98347.27;226650;1272;22541;-73
2023/08/26 22:59:34;;;;;;;8.40;5.60;;;;;;;19.55;93.67;98188.73;226437;1272;22545;-72
2023/08/26 23:04:39;;;;;;;9.80;7.50;;;;;;;19.45;92.78;98200.15;226866;1272;22530;-74
2023/08/26 23:09:44;;;;;;;9.10;8.10;;;;;;;19.38;92.42;98181.42;226713;1272;22620;-73
2023/08/26 23:14:45;;;;;;;9.80;8.30;;;;;;;19.33;92.64;98147.95;226736;1270;24261;-73